createdAt,value
2018-02-08T00:01:42.019Z,101194.61
2018-02-08T00:04:14.543Z,101185.65
2018-02-08T00:06:47.039Z,101186.80
2018-02-08T00:09:19.570Z,101184.32
2018-02-08T00:11:52.062Z,101182.64
2018-02-08T00:14:24.586Z,101177.45
2018-02-08T00:16:57.083Z,101176.79
2018-02-08T00:19:29.612Z,101176.90
2018-02-08T00:22:02.128Z,101181.12
2018-02-08T00:24:34.648Z,101180.45
2018-02-08T00:27:07.157Z,101191.28
2018-02-08T00:29:39.684Z,101186.41
2018-02-08T00:32:12.202Z,101185.91
2018-02-08T00:34:44.765Z,101182.48
2018-02-08T00:37:17.271Z,101185.96
2018-02-08T00:39:49.780Z,101187.39
2018-02-08T00:42:22.284Z,101189.36
2018-02-08T00:44:54.806Z,101178.51
2018-02-08T00:47:27.315Z,101191.73
2018-02-08T00:49:59.829Z,101196.33
2018-02-08T00:52:32.346Z,101194.23
2018-02-08T00:55:04.864Z,101191.70
2018-02-08T00:57:37.365Z,101194.89
2018-02-08T01:00:09.903Z,101201.06
2018-02-08T01:02:42.451Z,101190.98
2018-02-08T01:05:14.974Z,101191.83
2018-02-08T01:07:47.507Z,101194.17
2018-02-08T01:10:20.042Z,101201.84
2018-02-08T01:12:52.554Z,101195.20
2018-02-08T01:15:25.086Z,101200.31
2018-02-08T01:17:57.590Z,101209.77
2018-02-08T01:20:30.119Z,101202.75
2018-02-08T01:23:02.631Z,101207.19
2018-02-08T01:25:35.166Z,101205.09
2018-02-08T01:28:07.674Z,101203.86
2018-02-08T01:30:40.215Z,101209.34
2018-02-08T01:33:12.725Z,101206.67
2018-02-08T01:35:45.250Z,101209.07
2018-02-08T01:38:17.755Z,101202.31
2018-02-08T01:40:50.279Z,101212.34
2018-02-08T01:43:22.775Z,101197.52
2018-02-08T01:45:55.297Z,101197.48
2018-02-08T01:48:27.811Z,101199.72
2018-02-08T01:51:00.319Z,101192.34
2018-02-08T01:53:32.831Z,101189.53
2018-02-08T01:56:05.448Z,101184.05
2018-02-08T01:58:37.943Z,101181.13
2018-02-08T02:01:10.463Z,101183.13
2018-02-08T02:03:42.968Z,101180.34
2018-02-08T02:06:15.492Z,101178.61
2018-02-08T02:08:47.987Z,101173.21
2018-02-08T02:11:20.520Z,101173.05
2018-02-08T02:13:53.021Z,101167.65
2018-02-08T02:16:25.549Z,101169.78
2018-02-08T02:18:58.069Z,101163.73
2018-02-08T02:21:30.583Z,101155.98
2018-02-08T02:24:03.105Z,101159.73
2018-02-08T02:26:35.605Z,101166.41
2018-02-08T02:29:08.122Z,101168.08
2018-02-08T02:31:40.622Z,101163.73
2018-02-08T02:34:13.147Z,101174.52
2018-02-08T02:36:45.646Z,101164.41
2018-02-08T02:39:18.234Z,101165.92
2018-02-08T02:41:50.767Z,101160.95
2018-02-08T02:44:23.288Z,101165.78
2018-02-08T02:46:55.780Z,101163.02
2018-02-08T02:49:28.313Z,101164.92
2018-02-08T02:52:00.806Z,101169.75
2018-02-08T02:54:33.336Z,101167.00
2018-02-08T02:57:05.844Z,101167.40
2018-02-08T02:59:38.362Z,101157.18
2018-02-08T03:02:10.856Z,101164.53
2018-02-08T03:04:43.415Z,101168.22
2018-02-08T03:07:15.917Z,101163.91
2018-02-08T03:09:48.451Z,101168.78
2018-02-08T03:12:20.972Z,101167.96
2018-02-08T03:14:53.484Z,101170.45
2018-02-08T03:17:25.983Z,101172.41
2018-02-08T03:19:58.500Z,101171.45
2018-02-08T03:22:30.996Z,101176.05
2018-02-08T03:25:03.514Z,101171.42
2018-02-08T03:27:36.015Z,101173.60
2018-02-08T03:30:08.535Z,101173.17
2018-02-08T03:32:41.031Z,101176.41
2018-02-08T03:35:13.547Z,101190.05
2018-02-08T03:37:46.053Z,101182.87
2018-02-08T03:40:18.614Z,101180.17
2018-02-08T03:42:51.126Z,101177.50
2018-02-08T03:45:23.655Z,101180.97
2018-02-08T03:47:56.183Z,101179.35
2018-02-08T03:50:28.754Z,101190.02
2018-02-08T03:53:01.248Z,101193.19
2018-02-08T03:55:33.826Z,101189.05
2018-02-08T03:58:06.353Z,101199.35
2018-02-08T04:00:38.877Z,101196.58
2018-02-08T04:03:11.379Z,101199.20
2018-02-08T04:05:43.903Z,101199.02
2018-02-08T04:08:16.432Z,101200.09
2018-02-08T04:10:48.961Z,101203.69
2018-02-08T04:13:21.465Z,101198.84
2018-02-08T04:15:53.980Z,101196.80
2018-02-08T04:18:26.495Z,101203.56
2018-02-08T04:20:59.032Z,101200.52
2018-02-08T04:23:31.565Z,101201.07
2018-02-08T04:26:04.105Z,101202.89
2018-02-08T04:28:36.594Z,101200.82
2018-02-08T04:31:09.185Z,101206.78
2018-02-08T04:33:41.692Z,101215.12
2018-02-08T04:36:14.215Z,101218.05
2018-02-08T04:38:58.377Z,101222.22
2018-02-08T04:41:42.558Z,101224.72
2018-02-08T04:44:27.068Z,101218.70
2018-02-08T04:47:11.441Z,101219.59
2018-02-08T04:49:43.952Z,101215.44
2018-02-08T04:52:16.475Z,101218.39
2018-02-08T04:54:48.977Z,101212.06
2018-02-08T04:57:21.495Z,101206.89
2018-02-08T04:59:53.998Z,101217.61
2018-02-08T05:02:26.505Z,101229.17
2018-02-08T05:04:59.013Z,101224.06
2018-02-08T05:07:31.540Z,101224.00
2018-02-08T05:10:04.067Z,101224.06
2018-02-08T05:12:36.602Z,101219.41
2018-02-08T05:15:09.106Z,101220.75
2018-02-08T05:17:41.617Z,101228.72
2018-02-08T05:20:14.118Z,101227.56
2018-02-08T05:22:46.636Z,101229.23
2018-02-08T05:25:19.140Z,101226.65
2018-02-08T05:27:51.659Z,101232.25
2018-02-08T05:30:24.153Z,101233.34
2018-02-08T05:32:56.687Z,101233.56
2018-02-08T05:35:29.222Z,101236.17
2018-02-08T05:38:01.747Z,101227.77
2018-02-08T05:40:34.247Z,101233.59
2018-02-08T05:43:06.760Z,101234.08
2018-02-08T05:45:39.257Z,101236.33
2018-02-08T05:48:11.808Z,101235.08
2018-02-08T05:50:44.324Z,101237.55
2018-02-08T05:53:16.858Z,101233.28
2018-02-08T05:55:49.363Z,101239.86
2018-02-08T05:58:21.894Z,101244.09
2018-02-08T06:00:54.408Z,101247.06
2018-02-08T06:03:26.930Z,101248.55
2018-02-08T06:05:59.436Z,101254.03
2018-02-08T06:08:31.959Z,101253.08
2018-02-08T06:11:04.457Z,101257.47
2018-02-08T06:13:36.987Z,101254.37
2018-02-08T06:16:09.488Z,101246.76
2018-02-08T06:18:42.013Z,101246.45
2018-02-08T06:21:14.515Z,101246.45
2018-02-08T06:23:47.032Z,101251.20
2018-02-08T06:26:19.561Z,101257.90
2018-02-08T06:28:52.099Z,101262.10
2018-02-08T06:31:24.619Z,101264.72
2018-02-08T06:33:57.119Z,101266.42
2018-02-08T06:36:29.632Z,101267.67
2018-02-08T06:39:02.139Z,101266.66
2018-02-08T06:41:34.673Z,101265.72
2018-02-08T06:44:07.184Z,101267.03
2018-02-08T06:46:39.720Z,101266.91
2018-02-08T06:49:12.392Z,101279.35
2018-02-08T06:51:44.946Z,101265.39
2018-02-08T06:54:17.454Z,101274.12
2018-02-08T06:56:49.983Z,101269.59
2018-02-08T06:59:22.490Z,101277.26
2018-02-08T07:01:55.032Z,101276.20
2018-02-08T07:04:27.556Z,101279.70
2018-02-08T07:07:00.528Z,101279.27
2018-02-08T07:09:33.024Z,101287.61
2018-02-08T07:12:05.552Z,101295.59
2018-02-08T07:14:38.050Z,101292.03
2018-02-08T07:17:10.588Z,101300.43
2018-02-08T07:19:43.095Z,101292.58
2018-02-08T07:22:15.634Z,101295.48
2018-02-08T07:24:48.149Z,101299.53
2018-02-08T07:27:20.699Z,101303.61
2018-02-08T07:29:53.209Z,101304.70
2018-02-08T07:32:25.726Z,101311.19
2018-02-08T07:34:58.240Z,101311.37
2018-02-08T07:37:30.775Z,101308.11
2018-02-08T07:40:03.284Z,101306.39
2018-02-08T07:42:35.900Z,101315.56
2018-02-08T07:45:08.473Z,101310.06
2018-02-08T07:47:41.055Z,101313.80
2018-02-08T07:50:13.560Z,101304.87
2018-02-08T07:52:46.077Z,101308.67
2018-02-08T07:55:18.566Z,101317.06
2018-02-08T07:57:51.093Z,101314.39
2018-02-08T08:00:23.630Z,101308.45
2018-02-08T08:02:56.159Z,101297.69
2018-02-08T08:05:28.660Z,101299.61
2018-02-08T08:08:01.209Z,101314.52
2018-02-08T08:10:33.760Z,101312.53
2018-02-08T08:13:06.369Z,101312.88
2018-02-08T08:15:38.882Z,101306.78
2018-02-08T08:18:11.406Z,101311.52
2018-02-08T08:20:43.913Z,101308.05
2018-02-08T08:23:16.446Z,101309.47
2018-02-08T08:25:49.430Z,101313.70
2018-02-08T08:28:22.624Z,101319.14
2018-02-08T08:30:55.159Z,101310.69
2018-02-08T08:33:27.687Z,101316.59
2018-02-08T08:36:00.198Z,101317.86
2018-02-08T08:38:32.776Z,101317.83
2018-02-08T08:41:05.323Z,101316.05
2018-02-08T08:43:38.827Z,101320.28
2018-02-08T08:46:11.430Z,101315.34
2018-02-08T08:48:43.958Z,101319.97
2018-02-08T08:51:16.465Z,101316.13
2018-02-08T08:53:48.986Z,101319.02
2018-02-08T08:56:21.510Z,101326.05
2018-02-08T08:58:54.053Z,101316.69
2018-02-08T09:01:26.570Z,101321.40
2018-02-08T09:03:59.073Z,101322.31
2018-02-08T09:06:31.585Z,101320.75
2018-02-08T09:09:04.133Z,101327.32
2018-02-08T09:11:36.673Z,101325.95
2018-02-08T09:14:09.192Z,101320.20
2018-02-08T09:16:41.710Z,101318.63
2018-02-08T09:19:14.247Z,101321.94
2018-02-08T09:21:46.750Z,101322.17
2018-02-08T09:24:19.286Z,101322.11
2018-02-08T09:26:51.805Z,101332.37
2018-02-08T09:29:24.332Z,101330.59
2018-02-08T09:31:56.842Z,101335.65
2018-02-08T09:34:29.358Z,101331.09
2018-02-08T09:37:01.872Z,101343.58
2018-02-08T09:39:34.390Z,101348.05
2018-02-08T09:42:06.911Z,101355.84
2018-02-08T09:44:39.454Z,101351.29
2018-02-08T09:47:11.959Z,101354.86
2018-02-08T09:49:44.496Z,101354.70
2018-02-08T09:52:16.987Z,101358.11
2018-02-08T09:54:49.514Z,101354.72
2018-02-08T09:57:22.029Z,101362.77
2018-02-08T09:59:54.568Z,101356.91
2018-02-08T10:02:27.093Z,101357.93
2018-02-08T10:04:59.588Z,101362.73
2018-02-08T10:07:32.118Z,101363.86
2018-02-08T10:10:04.615Z,101360.44
2018-02-08T10:12:37.134Z,101358.49
2018-02-08T10:15:09.627Z,101353.16
2018-02-08T10:17:42.157Z,101352.06
2018-02-08T10:20:14.695Z,101351.92
2018-02-08T10:22:47.247Z,101343.84
2018-02-08T10:25:19.768Z,101345.10
2018-02-08T10:27:52.289Z,101340.83
2018-02-08T10:30:24.802Z,101340.58
2018-02-08T10:32:57.338Z,101341.27
2018-02-08T10:35:29.847Z,101334.31
2018-02-08T10:38:02.383Z,101338.31
2018-02-08T10:40:34.872Z,101339.11
2018-02-08T10:43:07.393Z,101335.55
2018-02-08T10:45:39.892Z,101330.58
2018-02-08T10:48:12.419Z,101331.57
2018-02-08T10:50:44.973Z,101337.35
2018-02-08T10:53:17.480Z,101338.27
2018-02-08T10:55:49.984Z,101335.01
2018-02-08T10:58:22.503Z,101332.67
2018-02-08T11:00:55.024Z,101340.55
2018-02-08T11:03:27.549Z,101336.08
2018-02-08T11:06:00.071Z,101337.53
2018-02-08T11:08:32.651Z,101327.59
2018-02-08T11:11:05.175Z,101332.98
2018-02-08T11:13:37.762Z,101331.94
2018-02-08T11:16:10.268Z,101326.19
2018-02-08T11:18:42.824Z,101324.84
2018-02-08T11:21:15.421Z,101328.44
2018-02-08T11:23:47.936Z,101332.59
2018-02-08T11:26:20.470Z,101332.45
2018-02-08T11:28:52.986Z,101331.08
2018-02-08T11:31:25.479Z,101333.75
2018-02-08T11:33:57.991Z,101339.93
2018-02-08T11:36:30.489Z,101337.24
2018-02-08T11:39:03.015Z,101334.56
2018-02-08T11:41:35.512Z,101338.50
2018-02-08T11:44:08.025Z,101333.85
2018-02-08T11:46:40.632Z,101324.27
2018-02-08T11:49:13.168Z,101332.42
2018-02-08T11:51:45.662Z,101325.86
2018-02-08T11:54:18.175Z,101316.00
2018-02-08T11:56:50.671Z,101315.81
2018-02-08T11:59:23.186Z,101323.41
2018-02-08T12:01:55.685Z,101312.69
2018-02-08T12:04:28.201Z,101314.91
2018-02-08T12:07:00.706Z,101317.14
2018-02-08T12:09:33.492Z,101309.67
2018-02-08T12:12:06.052Z,101311.59
2018-02-08T12:14:38.539Z,101306.34
2018-02-08T12:17:11.052Z,101302.03
2018-02-08T12:19:43.748Z,101304.02
2018-02-08T12:22:16.247Z,101304.07
2018-02-08T12:24:48.768Z,101299.96
2018-02-08T12:27:21.259Z,101299.28
2018-02-08T12:29:53.865Z,101302.60
2018-02-08T12:32:26.382Z,101297.33
2018-02-08T12:34:58.896Z,101299.80
2018-02-08T12:37:31.392Z,101294.19
2018-02-08T12:40:03.909Z,101293.89
2018-02-08T12:42:36.420Z,101287.89
2018-02-08T12:45:09.768Z,101290.90
2018-02-08T12:47:43.186Z,101274.44
2018-02-08T12:50:15.699Z,101280.34
2018-02-08T12:52:48.213Z,101277.82
2018-02-08T12:55:20.728Z,101274.02
2018-02-08T12:57:53.251Z,101269.42
2018-02-08T13:00:25.759Z,101265.05
2018-02-08T13:02:58.330Z,101251.80
2018-02-08T13:05:30.877Z,101262.43
2018-02-08T13:08:03.411Z,101250.06
2018-02-08T13:10:35.959Z,101252.77
2018-02-08T13:13:08.449Z,101260.73
2018-02-08T13:15:40.971Z,101253.67
2018-02-08T13:18:13.475Z,101251.19
2018-02-08T13:20:46.641Z,101261.88
2018-02-08T13:23:19.208Z,101251.75
2018-02-08T13:25:51.700Z,101245.50
2018-02-08T13:28:24.205Z,101251.08
2018-02-08T13:30:56.735Z,101253.48
2018-02-08T13:33:29.250Z,101248.13
2018-02-08T13:36:01.751Z,101248.72
2018-02-08T13:38:34.279Z,101240.41
2018-02-08T13:41:06.790Z,101234.22
2018-02-08T13:43:39.311Z,101234.22
2018-02-08T13:46:11.816Z,101233.19
2018-02-08T13:48:44.329Z,101225.92
2018-02-08T13:54:28.530Z,101224.83
2018-02-08T14:00:11.757Z,101223.94
2018-02-08T14:02:44.297Z,101225.62
2018-02-08T14:05:16.821Z,101221.27
2018-02-08T14:07:49.321Z,101228.16
2018-02-08T14:10:21.835Z,101223.42
2018-02-08T14:12:54.335Z,101227.65
2018-02-08T14:15:26.848Z,101229.48
2018-02-08T14:17:59.352Z,101220.83
2018-02-08T14:20:31.872Z,101219.59
2018-02-08T14:23:04.386Z,101220.98
2018-02-08T14:25:36.898Z,101220.36
2018-02-08T14:28:09.399Z,101221.25
2018-02-08T14:30:41.926Z,101222.20
2018-02-08T14:33:14.426Z,101219.72
2018-02-08T14:35:46.948Z,101213.39
2018-02-08T14:38:19.455Z,101216.34
2018-02-08T14:40:51.978Z,101205.33
2018-02-08T14:43:24.471Z,101206.84
2018-02-08T14:45:56.991Z,101203.52
2018-02-08T14:48:29.498Z,101207.47
2018-02-08T14:51:02.027Z,101207.05
2018-02-08T14:53:34.536Z,101194.61
2018-02-08T14:56:07.057Z,101196.42
2018-02-08T14:58:39.546Z,101201.83
2018-02-08T15:01:12.063Z,101197.68
2018-02-08T15:03:44.564Z,101193.92
2018-02-08T15:06:17.076Z,101192.62
2018-02-08T15:08:49.573Z,101201.41
2018-02-08T15:11:22.096Z,101198.48
2018-02-08T15:13:54.600Z,101194.73
2018-02-08T15:16:27.121Z,101188.86
2018-02-08T15:18:59.623Z,101191.77
2018-02-08T15:21:32.153Z,101191.66
2018-02-08T15:24:04.645Z,101194.98
2018-02-08T15:26:37.151Z,101188.53
2018-02-08T15:29:09.656Z,101195.08
2018-02-08T15:31:42.201Z,101196.20
2018-02-08T15:34:14.708Z,101193.91
2018-02-08T15:36:47.215Z,101199.02
2018-02-08T15:39:19.713Z,101189.69
2018-02-08T15:41:52.269Z,101190.16
2018-02-08T15:44:24.779Z,101195.30
2018-02-08T15:46:57.287Z,101191.09
2018-02-08T15:49:29.797Z,101180.88
2018-02-08T15:52:02.318Z,101181.99
2018-02-08T15:54:34.820Z,101178.10
2018-02-08T15:57:07.347Z,101175.80
2018-02-08T15:59:39.849Z,101186.23
2018-02-08T16:02:12.364Z,101183.18
2018-02-08T16:04:44.868Z,101190.23
2018-02-08T16:07:17.373Z,101188.02
2018-02-08T16:09:49.860Z,101195.91
2018-02-08T16:12:22.430Z,101203.31
2018-02-08T16:14:54.938Z,101200.48
2018-02-08T16:17:27.457Z,101201.07
2018-02-08T16:19:59.957Z,101215.81
2018-02-08T16:22:32.518Z,101218.75
2018-02-08T16:25:05.022Z,101212.75
2018-02-08T16:27:37.539Z,101212.61
2018-02-08T16:30:10.052Z,101218.06
2018-02-08T16:32:42.559Z,101218.86
2018-02-08T16:35:15.055Z,101218.42
2018-02-08T16:37:47.603Z,101213.25
2018-02-08T16:40:20.135Z,101214.45
2018-02-08T16:42:52.726Z,101215.70
2018-02-08T16:45:25.235Z,101214.16
2018-02-08T16:47:57.783Z,101218.94
2018-02-08T16:50:30.305Z,101219.69
2018-02-08T16:53:02.797Z,101219.98
2018-02-08T16:55:35.323Z,101220.33
2018-02-08T16:58:07.818Z,101222.70
2018-02-08T17:00:40.353Z,101220.09
2018-02-08T17:03:12.851Z,101221.62
2018-02-08T17:05:45.355Z,101227.83
2018-02-08T17:08:17.868Z,101225.09
2018-02-08T17:10:50.471Z,101226.10
2018-02-08T17:13:23.016Z,101232.74
2018-02-08T17:15:55.548Z,101239.88
2018-02-08T17:18:28.092Z,101243.94
2018-02-08T17:21:00.739Z,101241.59
2018-02-08T17:23:33.295Z,101245.63
2018-02-08T17:26:06.145Z,101250.22
2018-02-08T17:28:38.708Z,101248.90
2018-02-08T17:31:11.293Z,101246.45
2018-02-08T17:33:44.926Z,101240.98
2018-02-08T17:36:17.435Z,101243.09
2018-02-08T17:38:49.955Z,101238.36
2018-02-08T17:41:22.469Z,101240.72
2018-02-08T17:43:54.973Z,101237.63
2018-02-08T17:46:27.491Z,101237.95
2018-02-08T17:49:00.008Z,101234.06
2018-02-08T17:51:32.545Z,101233.73
2018-02-08T17:54:05.031Z,101239.53
2018-02-08T17:56:37.582Z,101232.25
2018-02-08T17:59:10.094Z,101234.60
2018-02-08T18:01:42.617Z,101227.71
2018-02-08T18:04:15.128Z,101233.84
2018-02-08T18:06:47.675Z,101229.78
2018-02-08T18:09:20.177Z,101228.32
2018-02-08T18:11:52.693Z,101231.22
2018-02-08T18:14:25.313Z,101224.50
2018-02-08T18:16:57.833Z,101221.47
2018-02-08T18:19:30.328Z,101222.66
2018-02-08T18:22:02.861Z,101225.06
2018-02-08T18:24:35.365Z,101220.61
2018-02-08T18:27:07.875Z,101223.12
2018-02-08T18:29:40.386Z,101223.86
2018-02-08T18:32:12.951Z,101228.25
2018-02-08T18:34:45.462Z,101221.94
2018-02-08T18:37:18.023Z,101221.23
2018-02-08T18:39:50.524Z,101225.86
2018-02-08T18:42:23.044Z,101221.12
2018-02-08T18:44:55.563Z,101219.67
2018-02-08T18:47:28.074Z,101215.04
2018-02-08T18:50:00.585Z,101222.61
2018-02-08T18:52:33.152Z,101221.36
2018-02-08T18:55:05.712Z,101219.96
2018-02-08T18:57:38.244Z,101225.31
2018-02-08T19:00:10.751Z,101231.00
2018-02-08T19:02:43.274Z,101230.51
2018-02-08T19:05:15.788Z,101227.75
2018-02-08T19:07:48.299Z,101233.22
2018-02-08T19:10:20.862Z,101233.52
2018-02-08T19:12:53.378Z,101233.08
2018-02-08T19:15:25.869Z,101231.70
2018-02-08T19:17:58.413Z,101228.72
2018-02-08T19:20:30.968Z,101230.92
2018-02-08T19:23:03.524Z,101229.63
2018-02-08T19:25:36.134Z,101226.70
2018-02-08T19:28:09.127Z,101230.05
2018-02-08T19:30:41.671Z,101226.59
2018-02-08T19:33:14.202Z,101230.33
2018-02-08T19:35:46.694Z,101226.58
2018-02-08T19:38:19.206Z,101223.25
2018-02-08T19:40:51.707Z,101217.78
2018-02-08T19:43:24.224Z,101222.74
2018-02-08T19:45:56.720Z,101226.05
2018-02-08T19:48:29.223Z,101225.62
2018-02-08T19:51:01.722Z,101221.66
2018-02-08T19:53:34.258Z,101222.80
2018-02-08T19:56:06.780Z,101220.62
2018-02-08T19:58:40.119Z,101220.52
2018-02-08T20:01:12.680Z,101219.64
2018-02-08T20:03:45.207Z,101216.08
2018-02-08T20:06:17.698Z,101208.44
2018-02-08T20:08:50.827Z,101212.59
2018-02-08T20:11:23.556Z,101216.25
2018-02-08T20:13:56.187Z,101212.16
2018-02-08T20:16:28.684Z,101210.41
2018-02-08T20:19:01.206Z,101206.53
2018-02-08T20:21:33.720Z,101204.75
2018-02-08T20:24:06.233Z,101204.68
2018-02-08T20:26:38.784Z,101199.89
2018-02-08T20:29:11.276Z,101199.44
2018-02-08T20:31:43.803Z,101202.28
2018-02-08T20:34:16.412Z,101197.56
2018-02-08T20:36:48.946Z,101199.98
2018-02-08T20:39:21.450Z,101198.25
2018-02-08T20:41:54.003Z,101203.06
2018-02-08T20:44:26.587Z,101200.47
2018-02-08T20:46:59.335Z,101199.48
2018-02-08T20:49:31.901Z,101194.55
2018-02-08T20:52:04.431Z,101197.33
2018-02-08T20:54:36.940Z,101199.42
2018-02-08T20:57:09.466Z,101193.16
2018-02-08T20:59:41.973Z,101195.17
2018-02-08T21:02:14.494Z,101187.58
2018-02-08T21:04:47.024Z,101193.37
2018-02-08T21:07:19.655Z,101199.23
2018-02-08T21:09:52.303Z,101192.90
2018-02-08T21:12:24.824Z,101187.29
2018-02-08T21:14:57.342Z,101194.97
2018-02-08T21:17:29.871Z,101189.84
2018-02-08T21:20:02.377Z,101191.03
2018-02-08T21:22:34.919Z,101185.23
2018-02-08T21:25:07.430Z,101186.50
2018-02-08T21:27:39.953Z,101181.88
2018-02-08T21:30:12.457Z,101171.33
2018-02-08T21:32:44.988Z,101173.78
2018-02-08T21:35:17.500Z,101168.97
2018-02-08T21:37:50.067Z,101165.48
2018-02-08T21:40:22.967Z,101167.49
2018-02-08T21:42:55.551Z,101170.83
2018-02-08T21:45:28.052Z,101173.81
2018-02-08T21:48:00.578Z,101163.17
2018-02-08T21:50:33.084Z,101165.64
2018-02-08T21:53:05.624Z,101162.17
2018-02-08T21:55:38.126Z,101158.69
2018-02-08T21:58:10.635Z,101162.80
2018-02-08T22:00:43.143Z,101156.89
2018-02-08T22:03:15.664Z,101161.41
2018-02-08T22:05:48.160Z,101160.54
2018-02-08T22:08:20.687Z,101153.73
2018-02-08T22:10:53.203Z,101162.50
2018-02-08T22:13:25.718Z,101152.79
2018-02-08T22:15:58.234Z,101159.66
2018-02-08T22:18:30.789Z,101157.30
2018-02-08T22:21:03.297Z,101161.48
2018-02-08T22:23:35.819Z,101159.05
2018-02-08T22:26:08.330Z,101162.83
2018-02-08T22:28:40.859Z,101162.62
2018-02-08T22:31:13.375Z,101162.13
2018-02-08T22:33:45.905Z,101161.11
2018-02-08T22:36:18.439Z,101163.50
2018-02-08T22:38:50.967Z,101150.83
2018-02-08T22:41:23.476Z,101152.44
2018-02-08T22:43:56.002Z,101149.13
2018-02-08T22:46:28.509Z,101146.53
2018-02-08T22:49:01.056Z,101143.20
2018-02-08T22:51:33.555Z,101133.66
2018-02-08T22:54:06.098Z,101134.42
2018-02-08T22:56:38.662Z,101133.16
2018-02-08T22:59:11.192Z,101134.71
2018-02-08T23:01:43.699Z,101134.59
2018-02-08T23:04:16.232Z,101137.08
2018-02-08T23:06:48.750Z,101138.75
2018-02-08T23:09:21.275Z,101135.37
2018-02-08T23:11:53.784Z,101134.05
2018-02-08T23:14:26.305Z,101130.66
2018-02-08T23:16:58.798Z,101135.16
2018-02-08T23:19:31.320Z,101130.66
2018-02-08T23:22:03.826Z,101131.83
2018-02-08T23:24:36.364Z,101133.08
2018-02-08T23:27:08.860Z,101121.86
2018-02-08T23:29:41.393Z,101125.95
2018-02-08T23:32:13.927Z,101123.75
2018-02-08T23:34:46.516Z,101125.41
2018-02-08T23:37:19.063Z,101125.42
2018-02-08T23:39:51.628Z,101119.30
2018-02-08T23:42:24.164Z,101119.61
2018-02-08T23:44:56.764Z,101123.77
2018-02-08T23:47:29.356Z,101121.73
2018-02-08T23:50:01.911Z,101120.11
2018-02-08T23:52:34.415Z,101117.06
2018-02-08T23:55:06.995Z,101122.06
2018-02-08T23:57:39.553Z,101116.13
